createdAt,value
2022-08-09T10:13:45.314Z,1.52
2022-08-09T10:16:58.201Z,1.17
2022-08-09T10:19:08.085Z,1.10
2022-08-09T10:21:57.185Z,1.52
2022-08-09T10:25:23.045Z,1.20
2022-08-09T10:28:12.978Z,1.10
2022-08-09T10:34:08.829Z,0.90
2022-08-09T10:36:53.875Z,1.22
2022-08-09T10:39:49.236Z,0.78
2022-08-09T10:42:31.856Z,0.70
2022-08-09T10:45:31.779Z,0.98
2022-08-09T10:48:31.342Z,1.00
2022-08-09T10:51:29.551Z,0.80
2022-08-09T10:54:17.856Z,1.05
2022-08-09T10:57:10.801Z,0.70
2022-08-09T11:00:01.654Z,0.85
2022-08-09T11:03:15.623Z,0.82
2022-08-09T11:05:38.687Z,0.80
2022-08-09T11:08:47.585Z,0.72
2022-08-09T11:12:02.159Z,1.02
2022-08-09T11:15:11.686Z,0.72
2022-08-09T11:18:03.906Z,1.10
2022-08-09T11:20:49.780Z,0.70
2022-08-09T11:23:57.175Z,0.72
2022-08-09T11:26:49.413Z,0.95
2022-08-09T11:30:06.015Z,0.70
2022-08-09T11:32:48.242Z,0.98
2022-08-09T11:35:57.754Z,0.80
2022-08-09T11:38:45.625Z,0.98
2022-08-09T11:41:37.824Z,0.80
2022-08-09T11:44:24.095Z,1.05
2022-08-09T11:47:14.460Z,1.20
2022-08-09T11:50:56.077Z,0.90
2022-08-09T11:53:58.622Z,0.72
2022-08-09T11:56:02.384Z,0.90
2022-08-09T11:58:55.897Z,0.78
2022-08-09T12:02:34.199Z,0.80
2022-08-09T12:04:38.023Z,0.80
2022-08-09T12:07:22.538Z,1.00
2022-08-09T12:10:31.757Z,0.80
2022-08-09T12:13:03.750Z,1.20
2022-08-09T12:15:52.573Z,1.10
2022-08-09T12:18:41.897Z,1.40
2022-08-09T12:21:38.540Z,1.80
2022-08-09T12:24:25.797Z,1.98
2022-08-09T12:29:11.579Z,1.95
2022-08-09T12:30:36.506Z,2.58
2022-08-09T12:33:04.586Z,1.42
2022-08-09T12:35:53.801Z,1.12
2022-08-09T12:38:42.899Z,1.02
2022-08-09T12:41:39.010Z,1.00
2022-08-09T12:44:24.553Z,1.20
2022-08-09T12:47:12.482Z,1.17
2022-08-09T12:50:19.962Z,1.40
2022-08-09T12:53:09.329Z,1.00
2022-08-09T12:56:36.841Z,0.98
2022-08-09T12:59:14.038Z,0.88
2022-08-09T13:02:07.191Z,0.80
2022-08-09T13:05:04.618Z,1.00
2022-08-09T13:08:14.777Z,0.90
2022-08-09T13:11:23.185Z,0.80
2022-08-09T13:16:49.411Z,0.93
2022-08-09T13:20:10.276Z,0.90
2022-08-09T13:23:01.253Z,0.88
2022-08-09T13:25:23.290Z,0.80
2022-08-09T13:28:34.454Z,0.93
2022-08-09T13:32:13.482Z,0.98
2022-08-09T13:33:59.929Z,0.93
2022-08-09T13:36:49.240Z,0.80
2022-08-09T13:41:50.540Z,1.12
2022-08-09T13:42:31.942Z,1.30
2022-08-09T13:45:20.801Z,0.95
2022-08-09T13:48:10.831Z,0.90
2022-08-09T13:50:57.304Z,1.50
2022-08-09T13:53:45.705Z,2.58
2022-08-09T13:56:32.890Z,1.10
2022-08-09T13:59:20.320Z,1.40
2022-08-09T14:02:09.995Z,0.98
2022-08-09T14:04:59.704Z,1.20
2022-08-09T14:07:46.521Z,1.27
2022-08-09T14:10:46.277Z,1.32
2022-08-09T14:14:15.718Z,1.40
2022-08-09T14:16:28.167Z,1.40
2022-08-09T14:19:10.256Z,1.25
2022-08-09T14:21:58.090Z,1.10
2022-08-09T14:24:47.126Z,1.32
2022-08-09T14:27:56.695Z,1.20
2022-08-09T14:30:37.327Z,1.47
2022-08-09T14:33:13.194Z,1.20
2022-08-09T14:36:19.746Z,1.27
2022-08-09T14:38:52.686Z,1.20
2022-08-09T14:41:42.000Z,1.60
2022-08-09T14:44:32.753Z,1.60
2022-08-09T14:47:39.711Z,1.50
2022-08-09T14:50:08.398Z,1.67
2022-08-09T14:52:57.660Z,1.40
2022-08-09T14:55:49.866Z,1.80
2022-08-09T14:58:37.632Z,1.80
2022-08-09T15:01:27.006Z,1.50
2022-08-09T15:04:14.385Z,1.27
2022-08-09T15:07:02.106Z,1.70
2022-08-09T15:10:04.577Z,1.45
2022-08-09T15:12:38.880Z,1.72
2022-08-09T15:15:28.545Z,1.87
2022-08-09T15:18:16.264Z,1.60
2022-08-09T15:21:55.402Z,1.70
2022-08-09T15:24:02.198Z,1.43
2022-08-09T15:26:46.411Z,1.67
2022-08-09T15:30:57.361Z,1.40
2022-08-09T15:32:28.652Z,1.32
2022-08-09T15:35:18.149Z,1.50
2022-08-09T15:38:11.218Z,1.47
2022-08-09T15:40:50.936Z,1.82
2022-08-09T15:43:40.721Z,1.70
2022-08-09T15:46:34.278Z,1.70
2022-08-09T15:52:09.361Z,2.02
2022-08-09T15:54:58.577Z,1.80
2022-08-09T15:57:51.476Z,1.90
2022-08-09T16:00:39.088Z,1.60
2022-08-09T16:03:38.296Z,1.60
2022-08-09T16:06:16.137Z,1.70
2022-08-09T16:09:06.169Z,1.50
2022-08-09T16:11:57.203Z,1.72
2022-08-09T16:14:42.536Z,1.60
2022-08-09T16:17:30.159Z,1.42
2022-08-09T16:20:18.992Z,1.20
2022-08-09T16:23:07.936Z,1.22
2022-08-09T16:26:01.045Z,1.40
2022-08-09T16:28:46.368Z,1.80
2022-08-09T16:32:10.475Z,1.50
2022-08-09T16:34:23.675Z,1.25
2022-08-09T16:37:11.870Z,1.50
2022-08-09T16:40:04.917Z,1.67
2022-08-09T16:42:49.777Z,1.72
2022-08-09T16:45:43.819Z,1.70
2022-08-09T16:48:39.465Z,2.02
2022-08-09T16:51:17.051Z,1.77
2022-08-09T16:54:27.871Z,1.90
2022-08-09T16:56:53.601Z,1.72
2022-08-09T16:59:44.141Z,1.70
2022-08-09T17:02:31.315Z,1.85
2022-08-09T17:05:19.991Z,1.95
2022-08-09T17:08:42.775Z,1.90
2022-08-09T17:10:56.913Z,2.08
2022-08-09T17:13:45.180Z,1.72
2022-08-09T17:16:38.222Z,2.42
2022-08-09T17:19:22.015Z,1.98
2022-08-09T17:22:10.473Z,2.40
2022-08-09T17:25:03.741Z,2.30
2022-08-09T17:27:49.387Z,2.80
2022-08-09T17:30:37.690Z,2.50
2022-08-09T17:33:26.569Z,2.47
2022-08-09T17:36:17.300Z,2.42
2022-08-09T17:39:06.591Z,2.95
2022-08-09T17:41:56.177Z,3.70
2022-08-09T17:44:49.323Z,3.17
2022-08-09T17:47:49.757Z,4.40
2022-08-09T17:50:36.662Z,3.83
2022-08-09T17:53:22.351Z,3.75
2022-08-09T17:56:09.551Z,3.47
2022-08-09T17:58:59.892Z,3.67
2022-08-09T18:02:07.978Z,4.45
2022-08-09T18:04:37.265Z,4.50
2022-08-09T18:07:26.930Z,4.22
2022-08-09T18:10:16.344Z,5.12
2022-08-09T18:13:53.620Z,7.53
2022-08-09T18:16:07.766Z,7.50
2022-08-09T18:18:49.197Z,6.35
2022-08-09T18:21:41.589Z,6.00
2022-08-09T18:24:27.513Z,5.85
2022-08-09T18:27:49.394Z,5.20
2022-08-09T18:30:41.749Z,5.00
2022-08-09T18:32:58.370Z,4.60
2022-08-09T18:35:58.176Z,5.97
2022-08-09T18:38:36.907Z,6.35
2022-08-09T18:44:13.968Z,6.17
2022-08-09T18:47:05.402Z,7.17
2022-08-09T18:49:54.985Z,5.83
2022-08-09T18:52:46.388Z,6.78
2022-08-09T18:55:56.098Z,5.72
2022-08-09T18:58:32.208Z,6.22
2022-08-09T19:01:17.464Z,5.35
2022-08-09T19:04:09.472Z,5.50
2022-08-09T19:06:58.306Z,4.85
2022-08-09T19:10:14.928Z,6.08
2022-08-09T19:12:40.457Z,6.00
2022-08-09T19:15:31.353Z,5.92
2022-08-09T19:18:33.819Z,4.60
2022-08-09T19:21:11.802Z,4.78
2022-08-09T19:24:39.577Z,4.50
2022-08-09T19:26:51.712Z,4.42
2022-08-09T19:30:25.174Z,4.92
2022-08-09T19:32:29.658Z,5.17
2022-08-09T19:35:18.825Z,5.10
2022-08-09T19:38:11.002Z,5.08
2022-08-09T19:41:05.499Z,4.42
2022-08-09T19:44:01.242Z,4.45
2022-08-09T19:46:50.698Z,6.35
2022-08-09T19:50:09.443Z,7.28
2022-08-09T19:52:23.384Z,6.70
2022-08-09T19:55:13.219Z,7.30
2022-08-09T19:58:04.833Z,7.10
2022-08-09T20:00:52.043Z,5.85
2022-08-09T20:04:18.057Z,6.03
2022-08-09T20:06:31.451Z,5.50
2022-08-09T20:09:44.662Z,6.05
2022-08-09T20:12:27.259Z,6.12
2022-08-09T20:16:34.768Z,6.15
2022-08-09T20:18:00.257Z,6.70
2022-08-09T20:20:50.318Z,5.70
2022-08-09T20:23:39.056Z,5.55
2022-08-09T20:26:31.434Z,6.42
2022-08-09T20:29:19.266Z,6.22
2022-08-09T20:32:29.291Z,5.62
2022-08-09T20:35:02.275Z,6.28
2022-08-09T20:38:20.349Z,5.87
2022-08-09T20:40:41.060Z,6.10
2022-08-09T20:43:32.377Z,6.53
2022-08-09T20:46:42.122Z,6.30
2022-08-09T20:49:10.331Z,6.30
2022-08-09T20:51:58.400Z,6.03
2022-08-09T20:54:52.644Z,5.87
2022-08-09T20:58:05.304Z,5.40
2022-08-09T21:00:32.132Z,6.17
2022-08-09T21:03:22.030Z,5.33
2022-08-09T21:06:09.552Z,5.00
2022-08-09T21:09:00.020Z,5.87
2022-08-09T21:14:40.545Z,5.40
2022-08-09T21:18:21.572Z,6.17
2022-08-09T21:20:23.052Z,6.62
2022-08-09T21:23:09.204Z,6.37
2022-08-09T21:25:59.901Z,8.38
2022-08-09T21:28:55.446Z,8.43
2022-08-09T21:31:49.226Z,8.13
2022-08-09T21:34:29.018Z,6.83
2022-08-09T21:37:18.148Z,7.12
2022-08-09T21:40:04.034Z,7.20
2022-08-09T21:42:54.261Z,8.23
2022-08-09T21:45:41.984Z,9.35
2022-08-09T21:48:30.994Z,13.30
2022-08-09T21:51:24.559Z,8.60
2022-08-09T21:54:10.161Z,8.60
2022-08-09T21:56:59.554Z,8.00
2022-08-09T21:59:46.813Z,6.33
2022-08-09T22:02:40.244Z,6.50
2022-08-09T22:05:37.048Z,7.33
2022-08-09T22:08:32.019Z,8.83
2022-08-09T22:12:05.668Z,6.67
2022-08-09T22:14:14.880Z,6.90
2022-08-09T22:17:02.178Z,6.53
2022-08-09T22:19:59.774Z,5.72
2022-08-09T22:22:42.251Z,6.20
2022-08-09T22:26:08.138Z,5.10
2022-08-09T22:28:21.135Z,5.50
2022-08-09T22:31:08.562Z,5.87
2022-08-09T22:33:56.425Z,6.50
2022-08-09T22:36:45.998Z,5.70
2022-08-09T22:39:56.021Z,7.40
2022-08-09T22:42:23.793Z,6.55
2022-08-09T22:48:11.987Z,6.03
2022-08-09T22:48:16.236Z,5.62
2022-08-09T22:50:53.074Z,6.22
2022-08-09T22:53:58.505Z,6.55
2022-08-09T22:56:31.377Z,7.65
2022-08-09T22:59:56.049Z,6.95
2022-08-09T23:02:07.146Z,7.15
2022-08-09T23:04:57.047Z,6.45
2022-08-09T23:08:21.944Z,6.42
2022-08-09T23:10:51.576Z,8.05
2022-08-09T23:13:39.081Z,9.58
2022-08-09T23:16:26.041Z,7.78
2022-08-09T23:19:13.264Z,8.03
2022-08-09T23:22:01.017Z,13.95
2022-08-09T23:24:48.683Z,11.20
2022-08-09T23:27:36.800Z,8.38
2022-08-09T23:30:25.769Z,9.00
2022-08-09T23:33:13.587Z,7.15
2022-08-09T23:36:06.456Z,7.53
2022-08-09T23:38:50.161Z,9.20
2022-08-09T23:41:38.243Z,8.15
2022-08-09T23:44:25.816Z,7.83
2022-08-09T23:47:13.146Z,7.78
2022-08-09T23:50:00.445Z,7.30
2022-08-09T23:52:47.882Z,7.05
2022-08-09T23:55:37.966Z,6.78
2022-08-09T23:58:29.717Z,7.08
